createdAt,value
2018-07-17T00:00:59.592Z,0.00
2018-07-17T00:02:05.561Z,0.00
2018-07-17T00:03:12.019Z,0.00
2018-07-17T00:04:18.472Z,0.00
2018-07-17T00:05:24.913Z,0.00
2018-07-17T00:06:31.360Z,0.00
2018-07-17T00:07:37.817Z,0.00
2018-07-17T00:08:44.301Z,0.00
2018-07-17T00:09:50.707Z,0.00
2018-07-17T00:10:57.165Z,0.00
2018-07-17T00:12:03.604Z,0.00
2018-07-17T00:13:10.048Z,0.00
2018-07-17T00:14:16.512Z,0.00
2018-07-17T00:15:22.950Z,0.00
2018-07-17T00:16:29.403Z,0.00
2018-07-17T00:17:35.840Z,0.00
2018-07-17T00:18:42.281Z,0.00
2018-07-17T00:19:48.753Z,0.00
2018-07-17T00:20:55.179Z,0.00
2018-07-17T00:22:01.619Z,0.00
2018-07-17T00:23:08.060Z,0.00
2018-07-17T00:24:14.507Z,0.00
2018-07-17T00:25:20.943Z,0.00
2018-07-17T00:26:27.396Z,0.00
2018-07-17T00:27:33.836Z,0.00
2018-07-17T00:28:40.275Z,0.00
2018-07-17T00:29:46.721Z,0.00
2018-07-17T00:30:53.165Z,0.00
2018-07-17T00:31:59.596Z,0.00
2018-07-17T00:33:06.037Z,0.00
2018-07-17T00:34:12.491Z,0.00
2018-07-17T00:35:18.930Z,0.00
2018-07-17T00:36:26.375Z,0.00
2018-07-17T00:37:31.820Z,0.00
2018-07-17T00:38:38.279Z,0.00
2018-07-17T00:39:44.731Z,0.00
2018-07-17T00:40:51.170Z,0.00
2018-07-17T00:41:57.627Z,0.00
2018-07-17T00:43:04.085Z,0.00
2018-07-17T00:44:10.544Z,0.00
2018-07-17T00:45:16.995Z,0.00
2018-07-17T00:46:23.441Z,0.00
2018-07-17T00:47:29.908Z,0.00
2018-07-17T00:48:36.351Z,0.00
2018-07-17T00:49:42.914Z,0.00
2018-07-17T00:50:49.264Z,0.00
2018-07-17T00:51:55.719Z,0.00
2018-07-17T00:53:02.178Z,0.00
2018-07-17T00:54:08.649Z,0.00
2018-07-17T00:55:15.093Z,0.00
2018-07-17T00:56:21.558Z,0.00
2018-07-17T00:57:28.007Z,0.00
2018-07-17T00:58:34.464Z,0.00
2018-07-17T00:59:40.946Z,0.00
2018-07-17T01:00:47.397Z,0.00
2018-07-17T01:01:53.838Z,0.00
2018-07-17T01:03:00.299Z,0.00
2018-07-17T01:04:06.759Z,0.00
2018-07-17T01:05:13.213Z,0.00
2018-07-17T01:06:19.674Z,0.00
2018-07-17T01:07:26.124Z,0.00
2018-07-17T01:08:32.571Z,0.00
2018-07-17T01:09:39.043Z,0.00
2018-07-17T01:10:45.506Z,0.00
2018-07-17T01:11:51.953Z,0.00
2018-07-17T01:12:58.401Z,0.00
2018-07-17T01:14:05.909Z,0.00
2018-07-17T01:15:12.319Z,0.00
2018-07-17T01:16:17.777Z,0.00
2018-07-17T01:17:24.235Z,0.00
2018-07-17T01:18:30.691Z,0.00
2018-07-17T01:19:38.167Z,0.00
2018-07-17T01:20:44.619Z,0.00
2018-07-17T01:21:50.069Z,0.00
2018-07-17T01:22:56.523Z,0.00
2018-07-17T01:24:03.474Z,0.00
2018-07-17T01:25:09.434Z,0.00
2018-07-17T01:26:15.881Z,0.00
2018-07-17T01:27:22.815Z,0.00
2018-07-17T01:28:28.777Z,0.00
2018-07-17T01:29:35.222Z,0.00
2018-07-17T01:30:41.668Z,0.00
2018-07-17T01:31:48.112Z,0.00
2018-07-17T01:32:55.547Z,0.00
2018-07-17T01:34:00.995Z,0.00
2018-07-17T01:35:07.445Z,0.00
2018-07-17T01:36:13.879Z,0.00
2018-07-17T01:37:20.316Z,0.00
2018-07-17T01:38:27.263Z,0.00
2018-07-17T01:39:33.195Z,0.00
2018-07-17T01:40:39.640Z,0.00
2018-07-17T01:41:46.069Z,0.00
2018-07-17T01:42:52.502Z,0.00
2018-07-17T01:43:58.949Z,0.00
2018-07-17T01:45:05.379Z,0.00
2018-07-17T01:46:11.904Z,0.00
2018-07-17T01:47:18.233Z,0.00
2018-07-17T01:48:24.662Z,0.00
2018-07-17T01:49:31.102Z,0.00
2018-07-17T01:50:37.521Z,0.00
2018-07-17T01:51:44.425Z,0.00
2018-07-17T01:52:50.363Z,0.00
2018-07-17T01:53:56.772Z,0.00
2018-07-17T01:55:03.194Z,0.00
2018-07-17T01:56:09.605Z,0.00
2018-07-17T01:57:16.024Z,0.00
2018-07-17T01:58:22.433Z,0.00
2018-07-17T01:59:28.853Z,0.00
2018-07-17T02:00:35.272Z,0.00
2018-07-17T02:01:41.668Z,0.00
2018-07-17T02:02:48.094Z,0.00
2018-07-17T02:03:54.502Z,0.00
2018-07-17T02:05:00.926Z,0.00
2018-07-17T02:06:07.328Z,0.00
2018-07-17T02:07:13.754Z,0.00
2018-07-17T02:08:20.178Z,0.00
2018-07-17T02:09:26.602Z,0.00
2018-07-17T02:10:33.029Z,0.00
2018-07-17T02:11:39.443Z,0.00
2018-07-17T02:12:45.874Z,0.00
2018-07-17T02:13:52.322Z,0.00
2018-07-17T02:14:58.725Z,0.00
2018-07-17T02:16:05.158Z,0.00
2018-07-17T02:17:11.588Z,0.00
2018-07-17T02:18:18.023Z,0.00
2018-07-17T02:19:24.456Z,0.00
2018-07-17T02:20:30.884Z,0.00
2018-07-17T02:21:37.305Z,0.00
2018-07-17T02:22:44.236Z,0.00
2018-07-17T02:23:50.162Z,0.00
2018-07-17T02:24:56.588Z,0.00
2018-07-17T02:26:03.067Z,0.00
2018-07-17T02:27:09.449Z,0.00
2018-07-17T02:28:15.872Z,0.00
2018-07-17T02:29:22.602Z,0.00
2018-07-17T02:30:28.734Z,0.00
2018-07-17T02:31:35.160Z,0.00
2018-07-17T02:32:41.579Z,0.00
2018-07-17T02:33:48.012Z,0.00
2018-07-17T02:34:54.438Z,0.00
2018-07-17T02:36:00.872Z,0.00
2018-07-17T02:37:07.299Z,0.00
2018-07-17T02:38:13.724Z,0.00
2018-07-17T02:39:20.150Z,0.00
2018-07-17T02:40:26.582Z,0.00
2018-07-17T02:41:33.003Z,0.00
2018-07-17T02:42:39.417Z,0.00
2018-07-17T02:43:45.855Z,0.00
2018-07-17T02:44:52.283Z,0.00
2018-07-17T02:45:58.709Z,0.00
2018-07-17T02:47:05.120Z,0.00
2018-07-17T02:48:11.547Z,0.00
2018-07-17T02:49:17.966Z,0.00
2018-07-17T02:50:24.401Z,0.00
2018-07-17T02:51:30.813Z,0.00
2018-07-17T02:52:37.238Z,0.00
2018-07-17T02:53:43.654Z,0.00
2018-07-17T02:54:50.090Z,0.00
2018-07-17T02:55:56.516Z,0.00
2018-07-17T02:57:02.935Z,0.00
2018-07-17T02:58:09.362Z,0.00
2018-07-17T02:59:15.880Z,0.00
2018-07-17T03:00:22.224Z,0.00
2018-07-17T03:01:28.643Z,0.00
2018-07-17T03:02:35.061Z,0.00
2018-07-17T03:03:41.495Z,0.00
2018-07-17T03:04:47.914Z,0.00
2018-07-17T03:05:54.353Z,0.00
2018-07-17T03:07:00.834Z,0.00
2018-07-17T03:08:07.213Z,0.00
2018-07-17T03:09:13.644Z,0.00
2018-07-17T03:10:20.061Z,0.00
2018-07-17T03:11:26.500Z,0.00
2018-07-17T03:12:32.929Z,0.00
2018-07-17T03:13:39.556Z,0.00
2018-07-17T03:14:45.788Z,0.00
2018-07-17T03:15:52.704Z,0.00
2018-07-17T03:16:58.640Z,0.00
2018-07-17T03:18:05.062Z,0.00
2018-07-17T03:19:11.498Z,0.00
2018-07-17T03:20:17.920Z,0.00
2018-07-17T03:21:24.354Z,0.00
2018-07-17T03:22:30.771Z,0.00
2018-07-17T03:23:37.190Z,0.00
2018-07-17T03:24:43.706Z,0.00
2018-07-17T03:25:50.525Z,5.63
2018-07-17T03:26:56.457Z,5.63
2018-07-17T03:28:02.862Z,5.63
2018-07-17T03:29:09.286Z,5.63
2018-07-17T03:30:15.698Z,5.63
2018-07-17T03:31:22.116Z,5.63
2018-07-17T03:32:28.517Z,5.63
2018-07-17T03:33:34.938Z,11.25
2018-07-17T03:34:41.894Z,11.25
2018-07-17T03:35:47.762Z,11.25
2018-07-17T03:36:54.164Z,11.25
2018-07-17T03:38:00.566Z,11.25
2018-07-17T03:39:06.968Z,11.25
2018-07-17T03:40:13.371Z,16.88
2018-07-17T03:41:19.775Z,16.88
2018-07-17T03:42:26.167Z,16.88
2018-07-17T03:43:33.058Z,16.88
2018-07-17T03:44:38.972Z,22.50
2018-07-17T03:45:45.380Z,22.50
2018-07-17T03:46:51.767Z,22.50
2018-07-17T03:47:58.163Z,22.50
2018-07-17T03:49:04.575Z,28.13
2018-07-17T03:50:10.979Z,28.13
2018-07-17T03:51:17.387Z,28.13
2018-07-17T03:52:23.785Z,28.13
2018-07-17T03:53:30.194Z,33.75
2018-07-17T03:54:36.606Z,33.75
2018-07-17T03:55:43.011Z,33.75
2018-07-17T03:56:49.432Z,39.38
2018-07-17T03:57:55.843Z,39.38
2018-07-17T03:59:02.258Z,39.38
2018-07-17T04:00:08.671Z,45.00
2018-07-17T04:01:15.088Z,45.00
2018-07-17T04:02:21.492Z,45.00
2018-07-17T04:03:27.908Z,45.00
2018-07-17T04:04:34.325Z,50.63
2018-07-17T04:05:40.741Z,50.63
2018-07-17T04:06:47.655Z,50.63
2018-07-17T04:07:53.575Z,56.25
2018-07-17T04:08:59.980Z,56.25
2018-07-17T04:10:06.389Z,56.25
2018-07-17T04:11:12.939Z,61.88
2018-07-17T04:12:19.210Z,61.88
2018-07-17T04:13:25.657Z,61.88
2018-07-17T04:14:32.049Z,67.50
2018-07-17T04:15:38.463Z,67.50
2018-07-17T04:16:44.890Z,67.50
2018-07-17T04:17:51.298Z,73.13
2018-07-17T04:18:57.728Z,73.13
2018-07-17T04:20:04.153Z,73.13
2018-07-17T04:21:10.581Z,78.75
2018-07-17T04:22:16.996Z,78.75
2018-07-17T04:23:23.435Z,78.75
2018-07-17T04:24:29.861Z,84.38
2018-07-17T04:25:36.299Z,84.38
2018-07-17T04:26:42.734Z,84.38
2018-07-17T04:27:49.158Z,84.38
2018-07-17T04:28:56.094Z,90.00
2018-07-17T04:30:02.032Z,90.00
2018-07-17T04:31:08.481Z,90.00
2018-07-17T04:32:14.902Z,95.63
2018-07-17T04:33:21.342Z,95.63
2018-07-17T04:34:27.779Z,95.63
2018-07-17T04:35:34.218Z,101.25
2018-07-17T04:36:40.673Z,101.25
2018-07-17T04:37:47.099Z,106.88
2018-07-17T04:38:53.547Z,106.88
2018-07-17T04:40:00.012Z,112.50
2018-07-17T04:41:06.442Z,112.50
2018-07-17T04:42:12.882Z,118.13
2018-07-17T04:43:19.328Z,118.13
2018-07-17T04:44:25.778Z,123.75
2018-07-17T04:45:32.218Z,123.75
2018-07-17T04:46:38.733Z,129.38
2018-07-17T04:47:45.129Z,129.38
2018-07-17T04:48:51.575Z,135.00
2018-07-17T04:49:58.525Z,135.00
2018-07-17T04:51:04.491Z,135.00
2018-07-17T04:52:10.949Z,135.00
2018-07-17T04:53:17.394Z,135.00
2018-07-17T04:54:23.856Z,135.00
2018-07-17T04:55:30.308Z,140.63
2018-07-17T04:56:36.776Z,140.63
2018-07-17T04:57:43.235Z,146.25
2018-07-17T04:58:49.687Z,146.25
2018-07-17T04:59:56.153Z,146.25
2018-07-17T05:01:02.622Z,146.25
2018-07-17T05:02:09.102Z,151.88
2018-07-17T05:03:15.560Z,151.88
2018-07-17T05:04:22.032Z,151.88
2018-07-17T05:05:28.997Z,151.88
2018-07-17T05:06:34.974Z,151.88
2018-07-17T05:07:41.448Z,151.88
2018-07-17T05:08:47.925Z,151.88
2018-07-17T05:09:54.393Z,151.88
2018-07-17T05:11:00.883Z,151.88
2018-07-17T05:12:07.362Z,151.88
2018-07-17T05:13:13.835Z,151.88
2018-07-17T05:14:20.315Z,157.50
2018-07-17T05:15:26.891Z,157.50
2018-07-17T05:16:33.283Z,157.50
2018-07-17T05:17:39.770Z,157.50
2018-07-17T05:18:46.246Z,157.50
2018-07-17T05:19:52.733Z,157.50
2018-07-17T05:20:59.221Z,157.50
2018-07-17T05:22:05.737Z,157.50
2018-07-17T05:23:12.203Z,157.50
2018-07-17T05:24:18.697Z,157.50
2018-07-17T05:25:25.191Z,157.50
2018-07-17T05:26:31.686Z,157.50
2018-07-17T05:27:38.185Z,157.50
2018-07-17T05:28:44.674Z,163.13
2018-07-17T05:29:51.179Z,163.13
2018-07-17T05:30:57.677Z,163.13
2018-07-17T05:32:04.181Z,163.13
2018-07-17T05:33:10.670Z,163.13
2018-07-17T05:34:17.172Z,163.13
2018-07-17T05:35:23.707Z,163.13
2018-07-17T05:36:30.219Z,163.13
2018-07-17T05:37:36.700Z,163.13
2018-07-17T05:38:43.202Z,163.13
2018-07-17T05:39:49.705Z,168.75
2018-07-17T05:40:56.209Z,174.38
2018-07-17T05:42:02.730Z,163.13
2018-07-17T05:43:09.230Z,163.13
2018-07-17T05:44:15.731Z,163.13
2018-07-17T05:45:22.241Z,163.13
2018-07-17T05:46:28.802Z,168.75
2018-07-17T05:47:35.277Z,168.75
2018-07-17T05:48:41.783Z,168.75
2018-07-17T05:49:48.283Z,168.75
2018-07-17T05:50:54.794Z,168.75
2018-07-17T05:52:01.356Z,168.75
2018-07-17T05:53:07.954Z,168.75
2018-07-17T05:54:14.840Z,168.75
2018-07-17T05:55:20.870Z,168.75
2018-07-17T05:56:27.366Z,168.75
2018-07-17T05:57:34.904Z,174.38
2018-07-17T05:58:40.489Z,174.38
2018-07-17T05:59:46.962Z,174.38
2018-07-17T06:00:53.461Z,174.38
2018-07-17T06:01:59.990Z,180.00
2018-07-17T06:03:06.513Z,180.00
2018-07-17T06:04:13.037Z,185.63
2018-07-17T06:05:19.557Z,191.25
2018-07-17T06:06:26.124Z,185.63
2018-07-17T06:07:32.635Z,185.63
2018-07-17T06:08:39.156Z,185.63
2018-07-17T06:09:45.691Z,185.63
2018-07-17T06:10:52.221Z,180.00
2018-07-17T06:11:58.775Z,180.00
2018-07-17T06:13:05.313Z,180.00
2018-07-17T06:14:11.838Z,180.00
2018-07-17T06:15:18.378Z,180.00
2018-07-17T06:16:24.929Z,180.00
2018-07-17T06:17:31.482Z,180.00
2018-07-17T06:18:38.019Z,180.00
2018-07-17T06:19:44.564Z,185.63
2018-07-17T06:20:51.102Z,185.63
2018-07-17T06:21:58.208Z,191.25
2018-07-17T06:23:04.208Z,191.25
2018-07-17T06:24:10.743Z,191.25
2018-07-17T06:25:17.301Z,191.25
2018-07-17T06:26:23.842Z,191.25
2018-07-17T06:27:30.403Z,191.25
2018-07-17T06:28:36.958Z,185.63
2018-07-17T06:29:43.500Z,185.63
2018-07-17T06:30:50.059Z,185.63
2018-07-17T06:31:56.619Z,185.63
2018-07-17T06:33:03.223Z,185.63
2018-07-17T06:34:09.720Z,185.63
2018-07-17T06:35:16.281Z,185.63
2018-07-17T06:36:22.854Z,185.63
2018-07-17T06:37:29.410Z,185.63
2018-07-17T06:38:35.964Z,191.25
2018-07-17T06:39:42.515Z,196.88
2018-07-17T06:40:49.579Z,196.88
2018-07-17T06:41:55.653Z,196.88
2018-07-17T06:43:02.214Z,196.88
2018-07-17T06:44:08.770Z,202.50
2018-07-17T06:45:15.341Z,202.50
2018-07-17T06:46:21.912Z,208.13
2018-07-17T06:47:28.490Z,213.75
2018-07-17T06:48:35.106Z,219.38
2018-07-17T06:49:41.617Z,230.63
2018-07-17T06:50:48.245Z,236.25
2018-07-17T06:51:54.801Z,241.88
2018-07-17T06:53:01.365Z,247.50
2018-07-17T06:54:07.947Z,253.13
2018-07-17T06:55:14.540Z,258.75
2018-07-17T06:56:21.142Z,264.38
2018-07-17T06:57:27.872Z,270.00
2018-07-17T06:58:34.339Z,281.25
2018-07-17T06:59:40.946Z,286.88
2018-07-17T07:00:47.572Z,292.50
2018-07-17T07:01:54.170Z,298.13
2018-07-17T07:03:00.802Z,303.75
2018-07-17T07:04:07.428Z,303.75
2018-07-17T07:05:14.055Z,303.75
2018-07-17T07:06:20.683Z,303.75
2018-07-17T07:07:27.324Z,303.75
2018-07-17T07:08:33.964Z,292.50
2018-07-17T07:09:40.599Z,292.50
2018-07-17T07:10:47.238Z,292.50
2018-07-17T07:11:53.896Z,286.88
2018-07-17T07:13:01.542Z,298.13
2018-07-17T07:14:07.200Z,298.13
2018-07-17T07:15:13.853Z,298.13
2018-07-17T07:16:20.505Z,303.75
2018-07-17T07:17:27.175Z,298.13
2018-07-17T07:18:33.850Z,286.88
2018-07-17T07:19:40.676Z,286.88
2018-07-17T07:20:47.147Z,281.25
2018-07-17T07:21:53.799Z,281.25
2018-07-17T07:23:00.474Z,270.00
2018-07-17T07:24:07.142Z,281.25
2018-07-17T07:25:13.908Z,275.63
2018-07-17T07:26:20.471Z,270.00
2018-07-17T07:27:27.142Z,264.38
2018-07-17T07:28:33.899Z,264.38
2018-07-17T07:29:40.481Z,258.75
2018-07-17T07:30:47.153Z,253.13
2018-07-17T07:31:53.814Z,253.13
2018-07-17T07:33:00.516Z,258.75
2018-07-17T07:34:07.180Z,258.75
2018-07-17T07:35:13.839Z,258.75
2018-07-17T07:36:20.505Z,264.38
2018-07-17T07:37:27.222Z,270.00
2018-07-17T07:38:33.870Z,270.00
2018-07-17T07:39:40.541Z,270.00
2018-07-17T07:40:47.219Z,270.00
2018-07-17T07:41:53.921Z,270.00
2018-07-17T07:43:00.589Z,275.63
2018-07-17T07:44:07.268Z,275.63
2018-07-17T07:45:13.952Z,281.25
2018-07-17T07:46:20.635Z,281.25
2018-07-17T07:47:27.328Z,281.25
2018-07-17T07:48:34.007Z,275.63
2018-07-17T07:49:40.684Z,270.00
2018-07-17T07:50:47.372Z,270.00
2018-07-17T07:51:54.065Z,275.63
2018-07-17T07:53:00.757Z,281.25
2018-07-17T07:54:07.439Z,281.25
2018-07-17T07:55:14.144Z,286.88
2018-07-17T07:56:20.838Z,286.88
2018-07-17T07:57:27.531Z,292.50
2018-07-17T07:58:34.238Z,292.50
2018-07-17T07:59:40.926Z,286.88
2018-07-17T08:00:47.828Z,292.50
2018-07-17T08:01:54.333Z,292.50
2018-07-17T08:03:01.045Z,292.50
2018-07-17T08:04:07.826Z,292.50
2018-07-17T08:05:14.450Z,292.50
2018-07-17T08:06:21.169Z,292.50
2018-07-17T08:07:27.878Z,292.50
2018-07-17T08:08:34.609Z,292.50
2018-07-17T08:09:41.305Z,292.50
2018-07-17T08:10:48.028Z,292.50
2018-07-17T08:11:54.751Z,292.50
2018-07-17T08:13:01.443Z,292.50
2018-07-17T08:14:08.159Z,292.50
2018-07-17T08:15:14.881Z,298.13
2018-07-17T08:16:21.602Z,298.13
2018-07-17T08:17:28.315Z,303.75
2018-07-17T08:18:35.037Z,303.75
2018-07-17T08:19:41.745Z,303.75
2018-07-17T08:20:48.961Z,303.75
2018-07-17T08:21:55.209Z,298.13
2018-07-17T08:23:01.943Z,298.13
2018-07-17T08:24:08.652Z,298.13
2018-07-17T08:25:15.388Z,298.13
2018-07-17T08:26:22.112Z,298.13
2018-07-17T08:27:28.844Z,298.13
2018-07-17T08:28:35.596Z,298.13
2018-07-17T08:29:42.398Z,298.13
2018-07-17T08:30:49.051Z,298.13
2018-07-17T08:31:55.794Z,303.75
2018-07-17T08:33:02.540Z,303.75
2018-07-17T08:34:09.273Z,303.75
2018-07-17T08:35:16.006Z,303.75
2018-07-17T08:36:22.759Z,303.75
2018-07-17T08:37:29.501Z,303.75
2018-07-17T08:38:36.255Z,303.75
2018-07-17T08:39:43.021Z,309.38
2018-07-17T08:40:49.741Z,315.00
2018-07-17T08:41:56.497Z,315.00
2018-07-17T08:43:03.262Z,309.38
2018-07-17T08:44:10.010Z,303.75
2018-07-17T08:45:16.792Z,303.75
2018-07-17T08:46:23.560Z,303.75
2018-07-17T08:47:30.308Z,315.00
2018-07-17T08:48:37.076Z,315.00
2018-07-17T08:49:43.840Z,315.00
2018-07-17T08:50:50.619Z,309.38
2018-07-17T08:51:57.369Z,309.38
2018-07-17T08:53:04.155Z,320.63
2018-07-17T08:54:10.926Z,320.63
2018-07-17T08:55:17.717Z,320.63
2018-07-17T08:56:24.491Z,320.63
2018-07-17T08:57:31.288Z,320.63
2018-07-17T08:58:38.070Z,298.13
2018-07-17T08:59:44.852Z,315.00
2018-07-17T09:00:51.668Z,320.63
2018-07-17T09:01:58.444Z,320.63
2018-07-17T09:03:05.239Z,320.63
2018-07-17T09:04:12.522Z,320.63
2018-07-17T09:05:18.832Z,320.63
2018-07-17T09:06:25.626Z,326.25
2018-07-17T09:07:32.455Z,326.25
2018-07-17T09:08:39.258Z,331.88
2018-07-17T09:09:46.053Z,337.50
2018-07-17T09:10:52.869Z,337.50
2018-07-17T09:11:59.676Z,337.50
2018-07-17T09:13:06.590Z,343.13
2018-07-17T09:14:13.313Z,343.13
2018-07-17T09:15:20.144Z,354.38
2018-07-17T09:16:26.958Z,348.75
2018-07-17T09:17:33.785Z,348.75
2018-07-17T09:18:40.624Z,354.38
2018-07-17T09:19:47.519Z,360.00
2018-07-17T09:20:54.268Z,365.63
2018-07-17T09:22:01.099Z,365.63
2018-07-17T09:23:07.936Z,365.63
2018-07-17T09:24:14.777Z,376.88
2018-07-17T09:25:21.608Z,376.88
2018-07-17T09:26:28.455Z,388.13
2018-07-17T09:27:35.299Z,405.00
2018-07-17T09:28:42.157Z,421.88
2018-07-17T09:29:48.998Z,416.25
2018-07-17T09:30:56.360Z,416.25
2018-07-17T09:32:02.723Z,416.25
2018-07-17T09:33:09.602Z,416.25
2018-07-17T09:34:16.474Z,410.63
2018-07-17T09:35:23.335Z,410.63
2018-07-17T09:36:30.216Z,382.50
2018-07-17T09:37:37.098Z,360.00
2018-07-17T09:38:43.989Z,360.00
2018-07-17T09:39:50.869Z,371.25
2018-07-17T09:40:57.761Z,382.50
2018-07-17T09:42:04.637Z,382.50
2018-07-17T09:43:11.513Z,393.75
2018-07-17T09:44:18.410Z,405.00
2018-07-17T09:45:25.288Z,410.63
2018-07-17T09:46:32.178Z,410.63
2018-07-17T09:47:39.080Z,421.88
2018-07-17T09:48:45.978Z,438.75
2018-07-17T09:49:52.862Z,461.25
2018-07-17T09:50:59.767Z,483.75
2018-07-17T09:52:06.664Z,517.50
2018-07-17T09:53:13.572Z,545.63
2018-07-17T09:54:20.512Z,562.50
2018-07-17T09:55:27.428Z,562.50
2018-07-17T09:56:34.348Z,562.50
2018-07-17T09:57:41.297Z,551.25
2018-07-17T09:58:48.235Z,517.50
2018-07-17T09:59:55.171Z,489.38
2018-07-17T10:01:02.123Z,455.63
2018-07-17T10:02:09.068Z,483.75
2018-07-17T10:03:16.008Z,523.13
2018-07-17T10:04:22.964Z,556.88
2018-07-17T10:05:30.911Z,551.25
2018-07-17T10:06:36.866Z,511.88
2018-07-17T10:07:43.919Z,444.38
2018-07-17T10:08:50.796Z,444.38
2018-07-17T10:09:57.749Z,461.25
2018-07-17T10:11:04.700Z,511.88
2018-07-17T10:12:11.667Z,540.00
2018-07-17T10:13:18.623Z,545.63
2018-07-17T10:14:25.696Z,534.38
2018-07-17T10:15:32.556Z,517.50
2018-07-17T10:16:39.533Z,495.00
2018-07-17T10:17:46.504Z,483.75
2018-07-17T10:18:53.476Z,466.88
2018-07-17T10:20:00.467Z,495.00
2018-07-17T10:21:07.416Z,517.50
2018-07-17T10:22:14.390Z,562.50
2018-07-17T10:23:21.372Z,568.13
2018-07-17T10:24:28.365Z,540.00
2018-07-17T10:25:35.351Z,534.38
2018-07-17T10:26:42.341Z,551.25
2018-07-17T10:27:49.332Z,556.88
2018-07-17T10:28:56.328Z,568.13
2018-07-17T10:30:03.328Z,585.00
2018-07-17T10:31:10.323Z,556.88
2018-07-17T10:32:17.327Z,545.63
2018-07-17T10:33:24.448Z,551.25
2018-07-17T10:34:31.367Z,545.63
2018-07-17T10:35:38.377Z,534.38
2018-07-17T10:36:45.392Z,556.88
2018-07-17T10:37:52.412Z,585.00
2018-07-17T10:38:59.435Z,624.38
2018-07-17T10:40:06.456Z,635.63
2018-07-17T10:41:13.488Z,641.25
2018-07-17T10:42:20.524Z,669.38
2018-07-17T10:43:27.578Z,697.50
2018-07-17T10:44:34.618Z,731.25
2018-07-17T10:45:41.685Z,736.88
2018-07-17T10:46:48.741Z,725.63
2018-07-17T10:47:55.914Z,720.00
2018-07-17T10:49:02.921Z,714.38
2018-07-17T10:50:09.998Z,675.00
2018-07-17T10:51:17.300Z,624.38
2018-07-17T10:52:24.187Z,613.13
2018-07-17T10:53:31.289Z,601.88
2018-07-17T10:54:38.380Z,590.63
2018-07-17T10:55:45.467Z,568.13
2018-07-17T10:56:52.559Z,562.50
2018-07-17T10:57:59.627Z,568.13
2018-07-17T10:59:06.723Z,568.13
2018-07-17T11:00:13.791Z,551.25
2018-07-17T11:01:20.865Z,528.75
2018-07-17T11:02:27.946Z,528.75
2018-07-17T11:03:35.013Z,517.50
2018-07-17T11:04:42.089Z,511.88
2018-07-17T11:05:49.155Z,506.25
2018-07-17T11:06:56.215Z,500.63
2018-07-17T11:08:03.280Z,500.63
2018-07-17T11:09:10.360Z,483.75
2018-07-17T11:10:17.425Z,472.50
2018-07-17T11:11:24.497Z,455.63
2018-07-17T11:12:31.571Z,506.25
2018-07-17T11:13:38.647Z,517.50
2018-07-17T11:14:45.743Z,568.13
2018-07-17T11:15:52.913Z,545.63
2018-07-17T11:17:00.111Z,579.38
2018-07-17T11:18:07.389Z,540.00
2018-07-17T11:19:14.647Z,450.00
2018-07-17T11:20:21.863Z,438.75
2018-07-17T11:21:29.043Z,444.38
2018-07-17T11:22:36.187Z,523.13
2018-07-17T11:23:43.901Z,466.88
2018-07-17T11:24:50.478Z,1732.50
2018-07-17T11:25:57.654Z,1715.63
2018-07-17T11:27:05.361Z,534.38
2018-07-17T11:28:12.059Z,1996.88
2018-07-17T11:29:19.335Z,1620.00
2018-07-17T11:30:28.113Z,1563.75
2018-07-17T11:31:33.944Z,1468.13
2018-07-17T11:32:41.299Z,1524.38
2018-07-17T11:33:49.658Z,1980.00
2018-07-17T11:34:56.097Z,1856.25
2018-07-17T11:36:03.992Z,2103.75
2018-07-17T11:37:11.473Z,2221.88
2018-07-17T11:38:18.504Z,1833.75
2018-07-17T11:39:26.036Z,1805.63
2018-07-17T11:40:33.572Z,1940.63
2018-07-17T11:41:41.125Z,2137.50
2018-07-17T11:42:48.711Z,2019.38
2018-07-17T11:43:56.308Z,1833.75
2018-07-17T11:45:03.905Z,1040.63
2018-07-17T11:46:11.463Z,1102.50
2018-07-17T11:47:18.979Z,1265.63
2018-07-17T11:48:26.487Z,1141.88
2018-07-17T11:49:33.974Z,1321.88
2018-07-17T11:50:41.448Z,1299.38
2018-07-17T11:51:48.913Z,798.75
2018-07-17T11:52:56.355Z,506.25
2018-07-17T11:54:03.751Z,826.88
2018-07-17T11:55:11.182Z,2525.63
2018-07-17T11:56:18.655Z,2970.00
2018-07-17T11:57:26.241Z,2930.63
2018-07-17T11:58:33.889Z,2851.88
2018-07-17T11:59:41.612Z,2919.38
2018-07-17T12:00:49.380Z,2750.63
2018-07-17T12:01:57.198Z,2593.13
2018-07-17T12:03:05.066Z,2458.13
2018-07-17T12:04:12.920Z,720.00
2018-07-17T12:05:20.730Z,2508.75
2018-07-17T12:06:28.560Z,2430.00
2018-07-17T12:07:36.454Z,2418.75
2018-07-17T12:08:44.383Z,2480.63
2018-07-17T12:09:52.340Z,2250.00
2018-07-17T12:11:00.308Z,2171.25
2018-07-17T12:12:08.312Z,2210.63
2018-07-17T12:13:16.340Z,2244.38
2018-07-17T12:14:24.383Z,2137.50
2018-07-17T12:15:32.437Z,2053.13
2018-07-17T12:16:40.498Z,2086.88
2018-07-17T12:17:48.578Z,2081.25
2018-07-17T12:18:56.676Z,2025.00
2018-07-17T12:20:04.935Z,1890.00
2018-07-17T12:21:12.886Z,1906.88
2018-07-17T12:22:20.983Z,1603.13
2018-07-17T12:23:29.007Z,1771.88
2018-07-17T12:24:37.071Z,1715.63
2018-07-17T12:25:45.151Z,1918.13
2018-07-17T12:26:54.233Z,714.38
2018-07-17T12:28:01.273Z,793.13
2018-07-17T12:29:09.164Z,1462.50
2018-07-17T12:30:17.606Z,1839.38
2018-07-17T12:31:25.050Z,1676.25
2018-07-17T12:32:33.037Z,1563.75
2018-07-17T12:33:41.050Z,1642.50
2018-07-17T12:34:50.158Z,1698.75
2018-07-17T12:35:57.121Z,894.38
2018-07-17T12:37:05.102Z,1237.50
2018-07-17T12:38:13.052Z,1473.75
2018-07-17T12:39:21.004Z,1231.88
2018-07-17T12:40:29.450Z,675.00
2018-07-17T12:41:36.790Z,646.88
2018-07-17T12:42:44.565Z,652.50
2018-07-17T12:43:52.281Z,663.75
2018-07-17T12:44:59.942Z,663.75
2018-07-17T12:46:07.542Z,646.88
2018-07-17T12:47:15.112Z,630.00
2018-07-17T12:48:22.649Z,613.13
2018-07-17T12:49:30.146Z,607.50
2018-07-17T12:50:37.613Z,624.38
2018-07-17T12:51:45.043Z,646.88
2018-07-17T12:52:52.474Z,652.50
2018-07-17T12:53:59.868Z,675.00
2018-07-17T12:55:07.259Z,708.75
2018-07-17T12:56:14.625Z,736.88
2018-07-17T12:57:21.976Z,759.38
2018-07-17T12:58:29.324Z,781.88
2018-07-17T12:59:36.670Z,798.75
2018-07-17T13:00:44.015Z,798.75
2018-07-17T13:01:51.346Z,776.25
2018-07-17T13:02:58.688Z,781.88
2018-07-17T13:04:06.005Z,798.75
2018-07-17T13:05:13.327Z,826.88
2018-07-17T13:06:20.639Z,866.25
2018-07-17T13:07:27.962Z,1546.88
2018-07-17T13:08:35.381Z,1074.38
2018-07-17T13:09:42.711Z,1434.38
2018-07-17T13:10:50.139Z,1507.50
2018-07-17T13:11:57.571Z,1226.25
2018-07-17T13:13:05.049Z,1085.63
2018-07-17T13:14:12.513Z,1023.75
2018-07-17T13:15:20.990Z,990.00
2018-07-17T13:16:27.451Z,956.25
2018-07-17T13:17:34.969Z,990.00
2018-07-17T13:18:42.369Z,1203.75
2018-07-17T13:19:49.853Z,1957.50
2018-07-17T13:20:57.423Z,1968.75
2018-07-17T13:22:05.027Z,1980.00
2018-07-17T13:23:12.711Z,1929.38
2018-07-17T13:24:20.457Z,1901.25
2018-07-17T13:25:28.251Z,1873.13
2018-07-17T13:26:36.066Z,1850.63
2018-07-17T13:27:43.918Z,1839.38
2018-07-17T13:28:51.817Z,1833.75
2018-07-17T13:29:59.740Z,1861.88
2018-07-17T13:31:07.689Z,1856.25
2018-07-17T13:32:15.636Z,1783.13
2018-07-17T13:33:23.620Z,1749.38
2018-07-17T13:34:31.616Z,1743.75
2018-07-17T13:35:39.626Z,1749.38
2018-07-17T13:36:47.654Z,1687.50
2018-07-17T13:37:55.691Z,1676.25
2018-07-17T13:39:03.733Z,1395.00
2018-07-17T13:40:11.790Z,843.75
2018-07-17T13:41:19.785Z,781.88
2018-07-17T13:42:27.734Z,1299.38
2018-07-17T13:43:35.702Z,1535.63
2018-07-17T13:44:43.648Z,1828.13
2018-07-17T13:45:51.563Z,1721.25
2018-07-17T13:47:00.527Z,826.88
2018-07-17T13:48:07.463Z,1625.63
2018-07-17T13:49:15.395Z,1800.00
2018-07-17T13:50:23.401Z,1811.25
2018-07-17T13:51:31.287Z,1822.50
2018-07-17T13:52:39.274Z,1783.13
2018-07-17T13:53:47.254Z,1580.63
2018-07-17T13:54:55.241Z,697.50
2018-07-17T13:56:03.198Z,652.50
2018-07-17T13:57:11.093Z,652.50
2018-07-17T13:58:18.905Z,624.38
2018-07-17T13:59:26.673Z,1648.13
2018-07-17T14:00:34.430Z,1788.75
2018-07-17T14:01:42.202Z,1811.25
2018-07-17T14:02:50.003Z,1800.00
2018-07-17T14:03:57.832Z,1766.25
2018-07-17T14:05:05.704Z,590.63
2018-07-17T14:06:13.564Z,894.38